createdAt,value
2019-03-06T00:00:58.166Z,27.50
2019-03-06T00:04:21.808Z,25.07
2019-03-06T00:07:45.665Z,31.17
2019-03-06T00:11:09.511Z,32.90
2019-03-06T00:14:33.447Z,26.67
2019-03-06T00:17:57.216Z,29.70
2019-03-06T00:21:20.979Z,26.57
2019-03-06T00:24:45.260Z,26.80
2019-03-06T00:28:08.937Z,21.77
2019-03-06T00:31:33.341Z,27.90
2019-03-06T00:34:58.614Z,26.50
2019-03-06T00:38:22.469Z,23.57
2019-03-06T00:41:46.460Z,26.60
2019-03-06T00:45:12.803Z,25.43
2019-03-06T00:48:36.630Z,22.80
2019-03-06T00:52:00.454Z,22.20
2019-03-06T00:55:24.211Z,22.80
2019-03-06T00:58:49.041Z,24.70
2019-03-06T01:02:12.992Z,25.77
2019-03-06T01:05:36.988Z,25.43
2019-03-06T01:09:01.303Z,32.47
2019-03-06T01:12:25.070Z,25.50
2019-03-06T01:15:48.917Z,28.57
2019-03-06T01:19:12.725Z,28.20
2019-03-06T01:22:36.582Z,26.00
2019-03-06T01:26:01.128Z,26.20
2019-03-06T01:29:25.003Z,36.40
2019-03-06T01:32:58.159Z,30.40
2019-03-06T01:36:42.110Z,31.87
2019-03-06T01:40:16.286Z,30.57
2019-03-06T01:43:41.645Z,33.00
2019-03-06T01:47:06.130Z,30.10
2019-03-06T01:50:29.915Z,31.13
2019-03-06T01:53:54.645Z,34.30
2019-03-06T01:57:18.360Z,40.47
2019-03-06T02:00:43.155Z,32.83
2019-03-06T02:04:07.076Z,32.93
2019-03-06T02:07:30.952Z,28.37
2019-03-06T02:10:54.870Z,28.73
2019-03-06T02:14:18.583Z,31.47
2019-03-06T02:17:42.492Z,27.43
2019-03-06T02:21:06.360Z,25.13
2019-03-06T02:24:30.153Z,26.50
2019-03-06T02:27:54.138Z,28.37
2019-03-06T02:31:17.911Z,28.73
2019-03-06T02:34:41.689Z,25.90
2019-03-06T02:38:05.466Z,20.50
2019-03-06T02:41:29.322Z,25.00
2019-03-06T02:44:53.087Z,26.77
2019-03-06T02:48:16.898Z,21.70
2019-03-06T02:51:40.660Z,24.23
2019-03-06T02:55:05.010Z,23.20
2019-03-06T02:58:33.459Z,24.77
2019-03-06T03:02:01.560Z,28.10
2019-03-06T03:05:33.132Z,27.70
2019-03-06T03:08:56.859Z,24.07
2019-03-06T03:12:20.900Z,17.50
2019-03-06T03:15:44.615Z,27.50
2019-03-06T03:19:08.556Z,26.73
2019-03-06T03:22:32.425Z,21.50
2019-03-06T03:25:56.224Z,21.87
2019-03-06T03:29:20.036Z,27.67
2019-03-06T03:32:43.957Z,30.93
2019-03-06T03:36:07.824Z,30.13
2019-03-06T03:39:31.673Z,23.47
2019-03-06T03:42:55.624Z,22.00
2019-03-06T03:46:19.370Z,33.67
2019-03-06T03:49:43.120Z,26.63
2019-03-06T03:53:07.951Z,26.23
2019-03-06T03:56:31.779Z,27.47
2019-03-06T03:59:56.013Z,20.67
2019-03-06T04:03:19.878Z,21.63
2019-03-06T04:06:43.929Z,22.23
2019-03-06T04:10:15.253Z,19.67
2019-03-06T04:13:39.038Z,23.57
2019-03-06T04:17:02.898Z,18.10
2019-03-06T04:20:26.715Z,23.67
2019-03-06T04:23:50.445Z,22.43
2019-03-06T04:27:14.219Z,16.13
2019-03-06T04:30:37.995Z,24.17
2019-03-06T04:34:01.720Z,21.80
2019-03-06T04:37:25.561Z,18.03
2019-03-06T04:40:49.378Z,28.13
2019-03-06T04:44:13.228Z,20.30
2019-03-06T04:47:36.997Z,20.77
2019-03-06T04:51:00.916Z,21.60
2019-03-06T04:54:24.750Z,20.43
2019-03-06T04:57:48.635Z,27.20
2019-03-06T05:01:12.383Z,24.37
2019-03-06T05:04:36.206Z,25.80
2019-03-06T05:07:59.873Z,29.53
2019-03-06T05:11:23.666Z,26.63
2019-03-06T05:14:47.445Z,29.20
2019-03-06T05:18:15.975Z,30.17
2019-03-06T05:21:39.830Z,27.70
2019-03-06T05:25:04.020Z,32.37
2019-03-06T05:28:27.898Z,29.77
2019-03-06T05:32:14.058Z,29.17
2019-03-06T05:35:49.723Z,31.90
2019-03-06T05:39:13.646Z,31.87
2019-03-06T05:42:37.390Z,29.40
2019-03-06T05:46:01.168Z,29.33
2019-03-06T05:49:25.866Z,29.53
2019-03-06T05:52:49.646Z,27.13
2019-03-06T05:56:13.372Z,26.77
2019-03-06T05:59:37.245Z,29.47
2019-03-06T06:03:01.093Z,29.53
2019-03-06T06:06:24.921Z,35.03
2019-03-06T06:09:48.595Z,28.83
2019-03-06T06:13:12.625Z,35.00
2019-03-06T06:16:36.463Z,25.70
2019-03-06T06:20:00.345Z,25.13
2019-03-06T06:23:42.055Z,20.73
2019-03-06T06:27:05.880Z,21.73
2019-03-06T06:30:29.760Z,21.20
2019-03-06T06:33:53.511Z,20.90
2019-03-06T06:37:17.512Z,25.03
2019-03-06T06:40:41.256Z,21.93
2019-03-06T06:44:05.164Z,25.23
2019-03-06T06:47:28.940Z,20.80
2019-03-06T06:51:04.551Z,28.20
2019-03-06T06:54:45.951Z,30.00
2019-03-06T06:58:19.298Z,31.70
2019-03-06T07:01:53.311Z,29.20
2019-03-06T07:05:18.871Z,27.20
2019-03-06T07:08:50.015Z,31.33
2019-03-06T07:12:15.418Z,25.97
2019-03-06T07:15:57.490Z,36.63
2019-03-06T07:19:22.877Z,21.97
2019-03-06T07:22:48.255Z,26.20
2019-03-06T07:26:26.643Z,25.20
2019-03-06T07:29:52.222Z,19.93
2019-03-06T07:33:23.103Z,22.30
2019-03-06T07:36:48.483Z,26.07
2019-03-06T07:40:13.548Z,29.13
2019-03-06T07:43:42.714Z,26.30
2019-03-06T07:47:20.454Z,22.80
2019-03-06T07:50:45.916Z,28.07
2019-03-06T07:54:14.354Z,28.70
2019-03-06T07:57:57.523Z,20.90
2019-03-06T08:01:22.838Z,23.73
2019-03-06T08:04:56.123Z,21.47
2019-03-06T08:08:20.015Z,22.93
2019-03-06T08:11:57.321Z,19.67
2019-03-06T08:15:23.176Z,20.53
2019-03-06T08:18:51.205Z,19.03
2019-03-06T08:22:22.645Z,16.77
2019-03-06T08:25:46.752Z,18.07
2019-03-06T08:29:10.502Z,20.37
2019-03-06T08:32:34.958Z,20.53
2019-03-06T08:35:58.882Z,16.23
2019-03-06T08:39:22.943Z,17.43
2019-03-06T08:42:46.789Z,13.77
2019-03-06T08:46:24.282Z,16.90
2019-03-06T08:49:49.756Z,17.47
2019-03-06T08:53:15.079Z,14.73
2019-03-06T08:56:43.449Z,15.50
2019-03-06T09:00:30.502Z,12.80
2019-03-06T09:03:54.028Z,11.97
2019-03-06T09:07:23.620Z,12.07
2019-03-06T09:11:02.402Z,13.20
2019-03-06T09:14:45.783Z,10.83
2019-03-06T09:18:26.608Z,12.40
2019-03-06T09:21:51.993Z,12.13
2019-03-06T09:25:17.438Z,14.40
2019-03-06T09:29:04.211Z,11.63
2019-03-06T09:32:38.077Z,10.70
2019-03-06T09:36:19.863Z,13.23
2019-03-06T09:39:58.303Z,10.63
2019-03-06T09:43:29.455Z,7.77
2019-03-06T09:46:57.371Z,12.80
2019-03-06T09:50:25.262Z,10.37
2019-03-06T09:53:56.578Z,12.10
2019-03-06T09:57:31.326Z,12.27
2019-03-06T10:01:02.599Z,11.30
2019-03-06T10:04:37.330Z,9.13
2019-03-06T10:08:02.678Z,10.23
2019-03-06T10:11:28.987Z,9.77
2019-03-06T10:15:00.430Z,11.27
2019-03-06T10:18:26.892Z,18.53
2019-03-06T10:21:50.756Z,12.00
2019-03-06T10:25:15.207Z,14.03
2019-03-06T10:28:38.977Z,13.77
2019-03-06T10:32:03.065Z,13.43
2019-03-06T10:35:27.383Z,13.63
2019-03-06T10:38:51.481Z,10.83
2019-03-06T10:42:15.628Z,11.83
2019-03-06T10:45:41.811Z,15.57
2019-03-06T10:49:05.384Z,9.67
2019-03-06T10:52:29.178Z,14.73
2019-03-06T10:55:52.897Z,10.57
2019-03-06T10:59:16.682Z,12.57
2019-03-06T11:02:40.898Z,10.17
2019-03-06T11:06:05.004Z,10.03
2019-03-06T11:09:29.051Z,12.63
2019-03-06T11:12:53.468Z,13.23
2019-03-06T11:16:17.990Z,11.07
2019-03-06T11:19:42.248Z,13.67
2019-03-06T11:23:08.667Z,13.93
2019-03-06T11:26:33.715Z,12.30
2019-03-06T11:29:58.403Z,12.63
2019-03-06T11:33:24.637Z,12.87
2019-03-06T11:36:48.922Z,10.37
2019-03-06T11:40:15.496Z,14.50
2019-03-06T11:43:39.738Z,11.87
2019-03-06T11:47:03.635Z,12.80
2019-03-06T11:50:27.490Z,11.80
2019-03-06T11:53:51.689Z,14.60
2019-03-06T11:57:15.541Z,14.50
2019-03-06T12:00:46.385Z,14.33
2019-03-06T12:04:10.305Z,10.67
2019-03-06T12:07:34.044Z,12.70
2019-03-06T12:10:57.880Z,9.33
2019-03-06T12:14:21.659Z,13.30
2019-03-06T12:17:45.507Z,11.83
2019-03-06T12:21:09.847Z,14.13
2019-03-06T12:24:33.936Z,15.10
2019-03-06T12:27:57.918Z,12.70
2019-03-06T12:31:21.896Z,10.23
2019-03-06T12:34:45.730Z,13.27
2019-03-06T12:38:10.875Z,12.50
2019-03-06T12:41:35.830Z,12.13
2019-03-06T12:44:59.525Z,8.50
2019-03-06T12:48:23.356Z,11.40
2019-03-06T12:51:54.114Z,10.53
2019-03-06T12:55:13.280Z,11.00
2019-03-06T12:58:38.477Z,8.73
2019-03-06T13:02:04.083Z,16.20
2019-03-06T13:05:27.948Z,12.20
2019-03-06T13:08:51.764Z,11.73
2019-03-06T13:12:15.616Z,16.20
2019-03-06T13:15:39.580Z,13.60
2019-03-06T13:19:03.399Z,10.40
2019-03-06T13:22:27.280Z,8.77
2019-03-06T13:25:51.135Z,12.30
2019-03-06T13:29:14.855Z,8.80
2019-03-06T13:32:41.335Z,8.57
2019-03-06T13:36:05.722Z,9.10
2019-03-06T13:39:29.524Z,10.07
2019-03-06T13:42:53.415Z,8.67
2019-03-06T13:46:17.313Z,10.43
2019-03-06T13:49:43.743Z,9.20
2019-03-06T13:53:07.270Z,11.77
2019-03-06T13:56:32.034Z,10.67
2019-03-06T13:59:55.990Z,10.37
2019-03-06T14:03:19.742Z,8.13
2019-03-06T14:06:44.144Z,9.07
2019-03-06T14:10:09.397Z,10.57
2019-03-06T14:13:33.953Z,11.63
2019-03-06T14:16:58.358Z,11.00
2019-03-06T14:20:24.620Z,11.10
2019-03-06T14:23:48.318Z,13.60
2019-03-06T14:27:12.480Z,13.77
2019-03-06T14:30:41.038Z,13.03
2019-03-06T14:34:05.031Z,13.73
2019-03-06T14:37:29.661Z,15.73
2019-03-06T14:40:55.685Z,19.47
2019-03-06T14:44:19.575Z,18.97
2019-03-06T14:47:44.369Z,16.20
2019-03-06T14:51:08.155Z,18.03
2019-03-06T14:54:32.295Z,17.57
2019-03-06T14:57:56.510Z,15.63
2019-03-06T15:01:20.310Z,19.67
2019-03-06T15:04:44.885Z,22.30
2019-03-06T15:08:09.283Z,19.97
2019-03-06T15:11:33.439Z,25.43
2019-03-06T15:14:57.527Z,19.47
2019-03-06T15:18:21.607Z,19.10
2019-03-06T15:21:45.505Z,20.77
2019-03-06T15:25:14.935Z,21.17
2019-03-06T15:28:40.181Z,21.63
2019-03-06T15:32:04.206Z,18.57
2019-03-06T15:35:29.909Z,17.37
2019-03-06T15:38:54.067Z,17.53
2019-03-06T15:42:21.476Z,17.93
2019-03-06T15:45:46.867Z,16.93
2019-03-06T15:49:11.318Z,16.13
2019-03-06T15:52:35.530Z,17.37
2019-03-06T15:56:00.833Z,19.60
2019-03-06T15:59:24.900Z,22.13
2019-03-06T16:02:49.418Z,22.87
2019-03-06T16:06:20.308Z,26.37
2019-03-06T16:09:47.796Z,21.57
2019-03-06T16:13:11.500Z,29.40
2019-03-06T16:16:35.823Z,27.43
2019-03-06T16:20:00.021Z,36.60
2019-03-06T16:23:24.593Z,29.57
2019-03-06T16:26:48.539Z,28.90
2019-03-06T16:30:15.871Z,34.13
2019-03-06T16:33:40.524Z,41.90
2019-03-06T16:37:05.013Z,39.10
2019-03-06T16:40:30.533Z,55.80
2019-03-06T16:43:54.625Z,51.80
2019-03-06T16:47:18.413Z,53.07
2019-03-06T16:50:42.284Z,62.13
2019-03-06T16:54:06.358Z,62.43
2019-03-06T16:57:30.149Z,64.77
2019-03-06T17:00:54.774Z,62.93
2019-03-06T17:04:18.921Z,59.67
2019-03-06T17:07:43.481Z,55.80
2019-03-06T17:11:07.673Z,59.87
2019-03-06T17:14:31.623Z,54.23
2019-03-06T17:17:56.085Z,58.43
2019-03-06T17:21:20.487Z,48.37
2019-03-06T17:24:44.561Z,46.63
2019-03-06T17:28:09.692Z,44.30
2019-03-06T17:31:33.754Z,50.83
2019-03-06T17:34:57.636Z,47.23
2019-03-06T17:38:21.737Z,43.17
2019-03-06T17:41:45.577Z,44.27
2019-03-06T17:45:09.810Z,50.47
2019-03-06T17:48:33.537Z,43.77
2019-03-06T17:51:57.752Z,50.10
2019-03-06T17:55:22.571Z,66.13
2019-03-06T17:58:46.459Z,83.33
2019-03-06T18:02:10.634Z,76.27
2019-03-06T18:05:38.372Z,79.30
2019-03-06T18:09:02.600Z,78.67
2019-03-06T18:12:26.727Z,91.37
2019-03-06T18:15:50.930Z,95.57
2019-03-06T18:19:16.163Z,96.00
2019-03-06T18:22:40.472Z,109.87
2019-03-06T18:26:06.084Z,95.40
2019-03-06T18:29:30.763Z,97.20
2019-03-06T18:32:54.883Z,85.20
2019-03-06T18:36:19.149Z,91.77
2019-03-06T18:39:43.090Z,110.87
2019-03-06T18:43:07.311Z,85.63
2019-03-06T18:46:31.296Z,82.83
2019-03-06T18:49:55.564Z,84.07
2019-03-06T18:53:19.943Z,75.93
2019-03-06T18:56:43.893Z,87.43
2019-03-06T19:00:16.682Z,85.20
2019-03-06T19:03:40.972Z,87.50
2019-03-06T19:07:04.944Z,91.27
2019-03-06T19:10:29.221Z,84.77
2019-03-06T19:13:53.430Z,71.00
2019-03-06T19:17:17.614Z,79.30
2019-03-06T19:20:41.924Z,78.73
2019-03-06T19:24:06.269Z,84.17
2019-03-06T19:27:30.284Z,86.63
2019-03-06T19:30:54.271Z,73.33
2019-03-06T19:34:18.344Z,78.33
2019-03-06T19:37:42.953Z,74.67
2019-03-06T19:41:06.801Z,93.20
2019-03-06T19:44:30.675Z,92.30
2019-03-06T19:47:58.383Z,110.37
2019-03-06T19:51:22.328Z,110.40
2019-03-06T19:54:46.256Z,111.03
2019-03-06T19:58:13.172Z,99.43
2019-03-06T20:01:37.860Z,92.37
2019-03-06T20:05:01.842Z,85.57
2019-03-06T20:08:25.938Z,73.27
2019-03-06T20:11:49.841Z,90.53
2019-03-06T20:15:19.124Z,69.63
2019-03-06T20:18:43.714Z,77.37
2019-03-06T20:22:13.188Z,62.17
2019-03-06T20:25:40.209Z,64.13
2019-03-06T20:29:04.064Z,57.53
2019-03-06T20:32:28.048Z,57.27
2019-03-06T20:35:51.963Z,54.00
2019-03-06T20:39:15.753Z,52.67
2019-03-06T20:42:39.582Z,58.53
2019-03-06T20:46:05.662Z,55.63
2019-03-06T20:49:29.622Z,57.40
2019-03-06T20:52:53.601Z,57.30
2019-03-06T20:56:17.644Z,57.80
2019-03-06T20:59:42.607Z,53.13
2019-03-06T21:03:07.671Z,57.47
2019-03-06T21:06:33.765Z,58.00
2019-03-06T21:09:57.395Z,55.33
2019-03-06T21:13:21.158Z,53.07
2019-03-06T21:16:44.913Z,52.00
2019-03-06T21:20:16.821Z,55.70
2019-03-06T21:23:40.570Z,53.80
2019-03-06T21:27:04.626Z,50.40
2019-03-06T21:30:30.398Z,54.80
2019-03-06T21:33:54.187Z,54.67
2019-03-06T21:37:18.086Z,52.67
2019-03-06T21:40:41.978Z,58.33
2019-03-06T21:44:05.896Z,55.07
2019-03-06T21:47:29.844Z,57.73
2019-03-06T21:50:53.687Z,54.60
2019-03-06T21:54:17.664Z,61.73
2019-03-06T21:57:41.411Z,52.37
2019-03-06T22:01:06.186Z,51.30
2019-03-06T22:04:33.221Z,43.80
2019-03-06T22:07:56.603Z,45.43
2019-03-06T22:11:23.950Z,49.93
2019-03-06T22:14:47.902Z,47.50
2019-03-06T22:18:11.995Z,53.70
2019-03-06T22:21:36.191Z,50.73
2019-03-06T22:25:00.365Z,47.37
2019-03-06T22:28:24.160Z,51.63
2019-03-06T22:31:48.028Z,44.77
2019-03-06T22:35:13.190Z,46.63
2019-03-06T22:38:37.338Z,44.93
2019-03-06T22:42:01.205Z,43.53
2019-03-06T22:45:25.029Z,42.47
2019-03-06T22:48:48.775Z,43.67
2019-03-06T22:52:12.576Z,45.43
2019-03-06T22:55:36.372Z,48.63
2019-03-06T22:59:00.115Z,47.83
2019-03-06T23:02:24.284Z,44.20
2019-03-06T23:05:48.206Z,48.43
2019-03-06T23:09:12.618Z,44.37
2019-03-06T23:12:36.395Z,46.00
2019-03-06T23:16:00.843Z,36.33
2019-03-06T23:19:24.629Z,44.43
2019-03-06T23:22:48.407Z,42.70
2019-03-06T23:26:12.218Z,41.87
2019-03-06T23:29:36.011Z,40.37
2019-03-06T23:32:59.775Z,46.77
2019-03-06T23:36:23.423Z,42.33
2019-03-06T23:39:47.302Z,47.40
2019-03-06T23:43:11.166Z,39.47
2019-03-06T23:46:35.070Z,38.50
2019-03-06T23:50:00.016Z,42.13
2019-03-06T23:53:23.768Z,39.87
2019-03-06T23:56:47.501Z,29.97
